VTS750 PANC-PAGM
Flight info
| Callsign | VTS750 |
|---|---|
| Flight time | 3h 5m |
| Altitude | 14000 |
| Route | FFITZ4 FFITZ J111 MCG H222 ICEEE ULL |
| Aircraft | DC6/M-SDE1FGHIRWXY/S |
Departure
| Time | 2026-04-21 18:36 |
|---|---|
| Airport | Ted Stevens Anchorage International Airport (PANC) |
Arrival
| Time | 2026-04-21 21:41 |
|---|---|
| Airport | Gambell Airport (PAGM) |
| Time | Latitude | Longitude | Altitude | Speed | Heading |
|---|---|---|---|---|---|
| 2026-04-21 18:10 | 61.17258 | -149.96360 | 97 ft | 0 kts | 319° |
| 2026-04-21 18:10 | 61.17258 | -149.96359 | 97 ft | 0 kts | 319° |
| 2026-04-21 18:10 | 61.17257 | -149.96359 | 97 ft | 0 kts | 319° |
| 2026-04-21 18:13 | 61.17257 | -149.96358 | 97 ft | 0 kts | 319° |
| 2026-04-21 18:16 | 61.17256 | -149.96357 | 97 ft | 0 kts | 319° |
| 2026-04-21 18:19 | 61.17256 | -149.96356 | 97 ft | 0 kts | 319° |
| 2026-04-21 18:22 | 61.17255 | -149.96356 | 97 ft | 0 kts | 319° |
| 2026-04-21 18:22 | 61.17255 | -149.96355 | 97 ft | 0 kts | 319° |
| 2026-04-21 18:26 | 61.17255 | -149.96354 | 97 ft | 0 kts | 319° |
| 2026-04-21 18:27 | 61.17262 | -149.96361 | 97 ft | 4 kts | 351° |
| 2026-04-21 18:27 | 61.17271 | -149.96360 | 98 ft | 0 kts | 13° |
| 2026-04-21 18:27 | 61.17273 | -149.96358 | 98 ft | 2 kts | 31° |
| 2026-04-21 18:28 | 61.17253 | -149.96282 | 98 ft | 12 kts | 153° |
| 2026-04-21 18:28 | 61.17156 | -149.96268 | 96 ft | 11 kts | 200° |
| 2026-04-21 18:28 | 61.17129 | -149.96426 | 96 ft | 16 kts | 270° |
| 2026-04-21 18:28 | 61.17128 | -149.96711 | 96 ft | 24 kts | 268° |
| 2026-04-21 18:29 | 61.17128 | -149.97097 | 99 ft | 30 kts | 270° |
| 2026-04-21 18:29 | 61.17119 | -149.97552 | 107 ft | 31 kts | 269° |
| 2026-04-21 18:29 | 61.17118 | -149.98014 | 114 ft | 35 kts | 269° |
| 2026-04-21 18:29 | 61.17117 | -149.98531 | 115 ft | 37 kts | 270° |
| 2026-04-21 18:30 | 61.17126 | -149.99101 | 117 ft | 43 kts | 270° |
| 2026-04-21 18:30 | 61.17125 | -149.99730 | 128 ft | 47 kts | 271° |
| 2026-04-21 18:30 | 61.17124 | -150.00381 | 137 ft | 44 kts | 270° |
| 2026-04-21 18:30 | 61.17114 | -150.00795 | 137 ft | 14 kts | 237° |
| 2026-04-21 18:31 | 61.17096 | -150.00805 | 136 ft | 2 kts | 136° |
| 2026-04-21 18:31 | 61.17118 | -150.00578 | 137 ft | 31 kts | 84° |
| 2026-04-21 18:31 | 61.17121 | -149.99965 | 132 ft | 53 kts | 89° |
| 2026-04-21 18:31 | 61.17125 | -149.99248 | 119 ft | 12 kts | 90° |
| 2026-04-21 18:32 | 61.17125 | -149.99242 | 119 ft | 0 kts | 89° |
| 2026-04-21 18:32 | 61.17125 | -149.99170 | 118 ft | 20 kts | 91° |
| 2026-04-21 18:32 | 61.17117 | -149.98625 | 116 ft | 51 kts | 91° |
| 2026-04-21 18:33 | 61.17116 | -149.97792 | 111 ft | 58 kts | 88° |
| 2026-04-21 18:33 | 61.17128 | -149.97079 | 99 ft | 36 kts | 90° |
| 2026-04-21 18:33 | 61.17067 | -149.96809 | 96 ft | 19 kts | 179° |
| 2026-04-21 18:33 | 61.16910 | -149.96843 | 97 ft | 13 kts | 231° |
| 2026-04-21 18:34 | 61.16885 | -149.96996 | 100 ft | 0 kts | 250° |
| 2026-04-21 18:34 | 61.16884 | -149.97000 | 100 ft | 2 kts | 250° |
| 2026-04-21 18:34 | 61.16843 | -149.97210 | 105 ft | 24 kts | 246° |
| 2026-04-21 18:35 | 61.16798 | -149.97520 | 111 ft | 46 kts | 264° |
| 2026-04-21 18:35 | 61.16789 | -149.98988 | 120 ft | 104 kts | 270° |
| 2026-04-21 18:35 | 61.16789 | -150.00682 | 133 ft | 133 kts | 268° |
| 2026-04-21 18:35 | 61.16787 | -150.02771 | 204 ft | 149 kts | 263° |
| 2026-04-21 18:36 | 61.16876 | -150.04317 | 1604 ft | 92 kts | 274° |
| 2026-04-21 18:36 | 61.17105 | -150.06232 | 1143 ft | 162 kts | 280° |
| 2026-04-21 18:36 | 61.17438 | -150.08454 | 1622 ft | 166 kts | 281° |
| 2026-04-21 18:36 | 61.17779 | -150.10696 | 2123 ft | 164 kts | 282° |
| 2026-04-21 18:37 | 61.18160 | -150.13008 | 2427 ft | 172 kts | 282° |
| 2026-04-21 18:37 | 61.18516 | -150.15373 | 2758 ft | 176 kts | 283° |
| 2026-04-21 18:37 | 61.18921 | -150.17844 | 2950 ft | 184 kts | 284° |
| 2026-04-21 18:37 | 61.19339 | -150.20318 | 3412 ft | 177 kts | 285° |
| 2026-04-21 18:38 | 61.19607 | -150.22748 | 3832 ft | 172 kts | 270° |
| 2026-04-21 18:38 | 61.19365 | -150.25124 | 4235 ft | 167 kts | 247° |
| 2026-04-21 18:38 | 61.18720 | -150.27083 | 4621 ft | 167 kts | 227° |
| 2026-04-21 18:38 | 61.17851 | -150.28732 | 4931 ft | 170 kts | 225° |
| 2026-04-21 18:39 | 61.17003 | -150.30420 | 5328 ft | 168 kts | 225° |
| 2026-04-21 18:39 | 61.16170 | -150.32075 | 5746 ft | 165 kts | 226° |
| 2026-04-21 18:39 | 61.15631 | -150.34125 | 6085 ft | 165 kts | 258° |
| 2026-04-21 18:39 | 61.15816 | -150.36456 | 6431 ft | 169 kts | 293° |
| 2026-04-21 18:40 | 61.16349 | -150.38605 | 6798 ft | 169 kts | 290° |
| 2026-04-21 18:40 | 61.16653 | -150.41004 | 7000 ft | 175 kts | 275° |
| 2026-04-21 18:40 | 61.16676 | -150.42678 | 7193 ft | 177 kts | 268° |
| 2026-04-21 18:40 | 61.16620 | -150.46101 | 7614 ft | 179 kts | 268° |
| 2026-04-21 18:41 | 61.16854 | -150.48654 | 7888 ft | 185 kts | 291° |
| 2026-04-21 18:41 | 61.17388 | -150.51073 | 8227 ft | 185 kts | 292° |
| 2026-04-21 18:41 | 61.17896 | -150.53525 | 8565 ft | 185 kts | 291° |
| 2026-04-21 18:41 | 61.18398 | -150.55986 | 8897 ft | 186 kts | 292° |
| 2026-04-21 18:42 | 61.18898 | -150.58459 | 9236 ft | 186 kts | 292° |
| 2026-04-21 18:42 | 61.19401 | -150.60940 | 9567 ft | 187 kts | 292° |
| 2026-04-21 18:42 | 61.19904 | -150.63428 | 9901 ft | 187 kts | 292° |
| 2026-04-21 18:42 | 61.20407 | -150.65922 | 10207 ft | 187 kts | 292° |
| 2026-04-21 18:43 | 61.20917 | -150.68452 | 10426 ft | 193 kts | 292° |
| 2026-04-21 18:43 | 61.21444 | -150.71066 | 10582 ft | 200 kts | 292° |
| 2026-04-21 18:43 | 61.21979 | -150.73726 | 10765 ft | 205 kts | 292° |
| 2026-04-21 18:43 | 61.22533 | -150.76473 | 10968 ft | 208 kts | 292° |
| 2026-04-21 18:44 | 61.23316 | -150.79082 | 11170 ft | 212 kts | 304° |
| 2026-04-21 18:44 | 61.24193 | -150.81495 | 11410 ft | 213 kts | 304° |
| 2026-04-21 18:44 | 61.25071 | -150.83986 | 11660 ft | 213 kts | 303° |
| 2026-04-21 18:44 | 61.25938 | -150.86483 | 11911 ft | 213 kts | 303° |
| 2026-04-21 18:45 | 61.26806 | -150.88980 | 12171 ft | 213 kts | 303° |
| 2026-04-21 18:45 | 61.27673 | -150.91471 | 12435 ft | 212 kts | 303° |
| 2026-04-21 18:45 | 61.28536 | -150.93954 | 12691 ft | 212 kts | 302° |
| 2026-04-21 18:45 | 61.29397 | -150.96430 | 12957 ft | 211 kts | 302° |
| 2026-04-21 18:46 | 61.30252 | -150.98898 | 13223 ft | 210 kts | 302° |
| 2026-04-21 18:46 | 61.31102 | -151.01352 | 13492 ft | 209 kts | 302° |
| 2026-04-21 18:46 | 61.31950 | -151.03798 | 13753 ft | 208 kts | 302° |
| 2026-04-21 18:46 | 61.32845 | -151.06162 | 13956 ft | 212 kts | 310° |
| 2026-04-21 18:47 | 61.34074 | -151.07920 | 14196 ft | 217 kts | 322° |
| 2026-04-21 18:47 | 61.35371 | -151.09515 | 14449 ft | 215 kts | 321° |
| 2026-04-21 18:47 | 61.36632 | -151.11161 | 14688 ft | 213 kts | 320° |
| 2026-04-21 18:47 | 61.37910 | -151.12871 | 14677 ft | 223 kts | 320° |
| 2026-04-21 18:48 | 61.39243 | -151.14634 | 14680 ft | 230 kts | 320° |
| 2026-04-21 18:48 | 61.40617 | -151.16446 | 14674 ft | 237 kts | 321° |
| 2026-04-21 18:48 | 61.42022 | -151.18305 | 14680 ft | 242 kts | 321° |
| 2026-04-21 18:48 | 61.43453 | -151.20203 | 14681 ft | 246 kts | 321° |
| 2026-04-21 18:49 | 61.44904 | -151.22124 | 14678 ft | 247 kts | 321° |
| 2026-04-21 18:49 | 61.46352 | -151.24047 | 14679 ft | 246 kts | 321° |
| 2026-04-21 18:49 | 61.47304 | -151.25310 | 14680 ft | 244 kts | 321° |
| 2026-04-21 18:49 | 61.49214 | -151.27853 | 14678 ft | 243 kts | 321° |
| 2026-04-21 18:50 | 61.50621 | -151.29729 | 14677 ft | 243 kts | 321° |
| 2026-04-21 18:50 | 61.52049 | -151.31634 | 14679 ft | 243 kts | 321° |
| 2026-04-21 18:50 | 61.53476 | -151.33542 | 14681 ft | 243 kts | 321° |
| 2026-04-21 18:50 | 61.54902 | -151.35449 | 14684 ft | 243 kts | 321° |
| 2026-04-21 18:51 | 61.56331 | -151.37360 | 14683 ft | 244 kts | 321° |
| 2026-04-21 18:51 | 61.57759 | -151.39272 | 14682 ft | 244 kts | 321° |
| 2026-04-21 18:51 | 61.59188 | -151.41191 | 14684 ft | 244 kts | 321° |
| 2026-04-21 18:51 | 61.60615 | -151.43107 | 14686 ft | 244 kts | 321° |
| 2026-04-21 18:52 | 61.62043 | -151.45032 | 14681 ft | 244 kts | 321° |
| 2026-04-21 18:52 | 61.63476 | -151.46955 | 14685 ft | 244 kts | 321° |
| 2026-04-21 18:52 | 61.64909 | -151.48892 | 14618 ft | 247 kts | 321° |
| 2026-04-21 18:52 | 61.66367 | -151.50863 | 14494 ft | 251 kts | 321° |
| 2026-04-21 18:53 | 61.67845 | -151.52857 | 14385 ft | 254 kts | 321° |
| 2026-04-21 18:53 | 61.69343 | -151.54882 | 14265 ft | 257 kts | 321° |
| 2026-04-21 18:53 | 61.70854 | -151.56925 | 14164 ft | 259 kts | 321° |
| 2026-04-21 18:53 | 61.72376 | -151.58992 | 14076 ft | 261 kts | 321° |
| 2026-04-21 18:54 | 61.73685 | -151.61542 | 14025 ft | 254 kts | 303° |
| 2026-04-21 18:54 | 61.74677 | -151.64593 | 14040 ft | 251 kts | 301° |
| 2026-04-21 18:54 | 61.75655 | -151.67621 | 14041 ft | 249 kts | 301° |
| 2026-04-21 18:54 | 61.76643 | -151.70617 | 14039 ft | 248 kts | 302° |
| 2026-04-21 18:55 | 61.77300 | -151.72586 | 14034 ft | 247 kts | 302° |
| 2026-04-21 18:55 | 61.78605 | -151.76561 | 14035 ft | 246 kts | 301° |
| 2026-04-21 18:55 | 61.79579 | -151.79520 | 14034 ft | 245 kts | 301° |
| 2026-04-21 18:55 | 61.80549 | -151.82466 | 14032 ft | 243 kts | 301° |
| 2026-04-21 18:56 | 61.81513 | -151.85402 | 14029 ft | 242 kts | 301° |
| 2026-04-21 18:56 | 61.82469 | -151.88340 | 14036 ft | 243 kts | 301° |
| 2026-04-21 18:56 | 61.83424 | -151.91232 | 14025 ft | 242 kts | 302° |
| 2026-04-21 18:56 | 61.84378 | -151.94149 | 14034 ft | 241 kts | 301° |
| 2026-04-21 18:57 | 61.85321 | -151.97069 | 14037 ft | 240 kts | 301° |
| 2026-04-21 18:57 | 61.86271 | -151.99956 | 14027 ft | 238 kts | 301° |
| 2026-04-21 18:57 | 61.87205 | -152.02846 | 14033 ft | 238 kts | 301° |
| 2026-04-21 18:57 | 61.88144 | -152.05753 | 14038 ft | 240 kts | 301° |
| 2026-04-21 18:58 | 61.89105 | -152.08654 | 14038 ft | 240 kts | 302° |
| 2026-04-21 18:58 | 61.90048 | -152.11563 | 14035 ft | 239 kts | 301° |
| 2026-04-21 18:58 | 61.90979 | -152.14453 | 14043 ft | 237 kts | 300° |
| 2026-04-21 18:58 | 61.91905 | -152.17357 | 14042 ft | 237 kts | 301° |
| 2026-04-21 18:59 | 61.92846 | -152.20229 | 14043 ft | 237 kts | 301° |
| 2026-04-21 18:59 | 61.93777 | -152.23117 | 14032 ft | 237 kts | 301° |
| 2026-04-21 18:59 | 61.94710 | -152.25987 | 14030 ft | 234 kts | 301° |
| 2026-04-21 18:59 | 61.95620 | -152.28860 | 14043 ft | 235 kts | 300° |
| 2026-04-21 19:00 | 61.96542 | -152.31722 | 14044 ft | 235 kts | 301° |
| 2026-04-21 19:00 | 61.97467 | -152.34581 | 14045 ft | 235 kts | 301° |
| 2026-04-21 19:00 | 61.98384 | -152.37453 | 14056 ft | 235 kts | 301° |
| 2026-04-21 19:00 | 61.99307 | -152.40325 | 14055 ft | 235 kts | 301° |
| 2026-04-21 19:01 | 62.00228 | -152.43203 | 14050 ft | 235 kts | 301° |
| 2026-04-21 19:01 | 62.01147 | -152.46077 | 14054 ft | 235 kts | 301° |
| 2026-04-21 19:01 | 62.02061 | -152.48953 | 14061 ft | 234 kts | 301° |
| 2026-04-21 19:01 | 62.02977 | -152.51830 | 14062 ft | 234 kts | 301° |
| 2026-04-21 19:02 | 62.03893 | -152.54698 | 14063 ft | 234 kts | 301° |
| 2026-04-21 19:02 | 62.04805 | -152.57572 | 14065 ft | 234 kts | 301° |
| 2026-04-21 19:02 | 62.05718 | -152.60451 | 14068 ft | 235 kts | 301° |
| 2026-04-21 19:02 | 62.06635 | -152.63334 | 14067 ft | 235 kts | 301° |
| 2026-04-21 19:03 | 62.07554 | -152.66228 | 14070 ft | 236 kts | 301° |
| 2026-04-21 19:03 | 62.08469 | -152.69127 | 14072 ft | 235 kts | 301° |
| 2026-04-21 19:03 | 62.09383 | -152.72017 | 14075 ft | 235 kts | 301° |
| 2026-04-21 19:03 | 62.10292 | -152.74910 | 14078 ft | 234 kts | 301° |
| 2026-04-21 19:04 | 62.11200 | -152.77793 | 14080 ft | 234 kts | 300° |
| 2026-04-21 19:04 | 62.12111 | -152.80667 | 14068 ft | 233 kts | 301° |
| 2026-04-21 19:04 | 62.13010 | -152.83491 | 14093 ft | 228 kts | 300° |
| 2026-04-21 19:04 | 62.13875 | -152.86358 | 14075 ft | 230 kts | 300° |
| 2026-04-21 19:05 | 62.14777 | -152.89191 | 14090 ft | 231 kts | 301° |
| 2026-04-21 19:05 | 62.15678 | -152.92030 | 14098 ft | 230 kts | 300° |
| 2026-04-21 19:05 | 62.16569 | -152.94894 | 14098 ft | 231 kts | 300° |
| 2026-04-21 19:05 | 62.17463 | -152.97759 | 14106 ft | 231 kts | 300° |
| 2026-04-21 19:06 | 62.18358 | -153.00619 | 14103 ft | 231 kts | 300° |
| 2026-04-21 19:06 | 62.19247 | -153.03485 | 14094 ft | 232 kts | 299° |
| 2026-04-21 19:06 | 62.20139 | -153.06368 | 14110 ft | 234 kts | 300° |
| 2026-04-21 19:06 | 62.21050 | -153.09267 | 14097 ft | 234 kts | 301° |
| 2026-04-21 19:07 | 62.21950 | -153.12142 | 14117 ft | 233 kts | 299° |
| 2026-04-21 19:07 | 62.22834 | -153.15085 | 14115 ft | 235 kts | 300° |
| 2026-04-21 19:07 | 62.23442 | -153.17010 | 14123 ft | 236 kts | 301° |
| 2026-04-21 19:07 | 62.24664 | -153.20935 | 14122 ft | 238 kts | 300° |
| 2026-04-21 19:08 | 62.25270 | -153.22895 | 14117 ft | 238 kts | 301° |
| 2026-04-21 19:08 | 62.26185 | -153.25824 | 14120 ft | 235 kts | 300° |
| 2026-04-21 19:08 | 62.27068 | -153.28751 | 14123 ft | 234 kts | 299° |
| 2026-04-21 19:08 | 62.27958 | -153.31684 | 14129 ft | 236 kts | 300° |
| 2026-04-21 19:09 | 62.28878 | -153.34613 | 14136 ft | 237 kts | 300° |
| 2026-04-21 19:09 | 62.29789 | -153.37554 | 14136 ft | 236 kts | 300° |
| 2026-04-21 19:09 | 62.30687 | -153.40505 | 14135 ft | 236 kts | 300° |
| 2026-04-21 19:09 | 62.31585 | -153.43440 | 14134 ft | 234 kts | 300° |
| 2026-04-21 19:10 | 62.32474 | -153.46355 | 14141 ft | 232 kts | 300° |
| 2026-04-21 19:10 | 62.33358 | -153.49258 | 14151 ft | 231 kts | 300° |
| 2026-04-21 19:10 | 62.34240 | -153.52142 | 14150 ft | 230 kts | 299° |
| 2026-04-21 19:10 | 62.35116 | -153.55052 | 14145 ft | 234 kts | 300° |
| 2026-04-21 19:11 | 62.36021 | -153.57937 | 14160 ft | 230 kts | 300° |
| 2026-04-21 19:11 | 62.36886 | -153.60807 | 14150 ft | 228 kts | 298° |
| 2026-04-21 19:11 | 62.37738 | -153.63696 | 14144 ft | 228 kts | 300° |
| 2026-04-21 19:11 | 62.38618 | -153.66518 | 14140 ft | 225 kts | 300° |
| 2026-04-21 19:12 | 62.39462 | -153.69360 | 14152 ft | 228 kts | 298° |
| 2026-04-21 19:12 | 62.40329 | -153.72242 | 14162 ft | 230 kts | 300° |
| 2026-04-21 19:12 | 62.41220 | -153.75132 | 14159 ft | 232 kts | 300° |
| 2026-04-21 19:12 | 62.42103 | -153.78071 | 14162 ft | 234 kts | 299° |
| 2026-04-21 19:13 | 62.42995 | -153.81033 | 14158 ft | 236 kts | 300° |
| 2026-04-21 19:13 | 62.43888 | -153.83987 | 14148 ft | 235 kts | 299° |
| 2026-04-21 19:13 | 62.44770 | -153.86942 | 14169 ft | 234 kts | 299° |
| 2026-04-21 19:13 | 62.45650 | -153.89912 | 14164 ft | 235 kts | 299° |
| 2026-04-21 19:14 | 62.46546 | -153.92867 | 14167 ft | 235 kts | 300° |
| 2026-04-21 19:14 | 62.47438 | -153.95831 | 14167 ft | 235 kts | 299° |
| 2026-04-21 19:14 | 62.48320 | -153.98805 | 14169 ft | 235 kts | 299° |
| 2026-04-21 19:14 | 62.49207 | -154.01773 | 14171 ft | 235 kts | 299° |
| 2026-04-21 19:15 | 62.50094 | -154.04745 | 14173 ft | 235 kts | 299° |
| 2026-04-21 19:15 | 62.50978 | -154.07716 | 14174 ft | 235 kts | 299° |
| 2026-04-21 19:15 | 62.51859 | -154.10689 | 14172 ft | 235 kts | 299° |
| 2026-04-21 19:15 | 62.52743 | -154.13661 | 14177 ft | 235 kts | 299° |
| 2026-04-21 19:16 | 62.53613 | -154.16596 | 14180 ft | 234 kts | 299° |
| 2026-04-21 19:16 | 62.54494 | -154.19567 | 14181 ft | 234 kts | 299° |
| 2026-04-21 19:16 | 62.55374 | -154.22544 | 14176 ft | 235 kts | 299° |
| 2026-04-21 19:16 | 62.56254 | -154.25524 | 14179 ft | 235 kts | 299° |
| 2026-04-21 19:17 | 62.58011 | -154.31483 | 14180 ft | 234 kts | 299° |
| 2026-04-21 19:17 | 62.58886 | -154.34461 | 14182 ft | 234 kts | 299° |
| 2026-04-21 19:17 | 62.59761 | -154.37442 | 14185 ft | 234 kts | 298° |
| 2026-04-21 19:18 | 62.60638 | -154.40426 | 14183 ft | 234 kts | 299° |
| 2026-04-21 19:18 | 62.61513 | -154.43406 | 14189 ft | 234 kts | 298° |
| 2026-04-21 19:18 | 62.62385 | -154.46394 | 14187 ft | 234 kts | 298° |
| 2026-04-21 19:18 | 62.63258 | -154.49383 | 14188 ft | 234 kts | 298° |
| 2026-04-21 19:19 | 62.64132 | -154.52376 | 14186 ft | 234 kts | 298° |
| 2026-04-21 19:19 | 62.65004 | -154.55369 | 14186 ft | 234 kts | 298° |
| 2026-04-21 19:19 | 62.65875 | -154.58358 | 14191 ft | 234 kts | 298° |
| 2026-04-21 19:19 | 62.66662 | -154.61511 | 13618 ft | 251 kts | 286° |
| 2026-04-21 19:20 | 62.67376 | -154.65086 | 13442 ft | 259 kts | 300° |
| 2026-04-21 19:20 | 62.68503 | -154.68082 | 13804 ft | 248 kts | 306° |
| 2026-04-21 19:20 | 62.69595 | -154.70764 | 14161 ft | 231 kts | 307° |
| 2026-04-21 19:20 | 62.70671 | -154.73393 | 13940 ft | 235 kts | 307° |
| 2026-04-21 19:21 | 62.71790 | -154.75951 | 13865 ft | 232 kts | 309° |
| 2026-04-21 19:21 | 62.72924 | -154.78517 | 13678 ft | 234 kts | 307° |
| 2026-04-21 19:21 | 62.74009 | -154.81166 | 13565 ft | 238 kts | 306° |
| 2026-04-21 19:21 | 62.75101 | -154.84014 | 13147 ft | 251 kts | 304° |
| 2026-04-21 19:22 | 62.76194 | -154.87010 | 13046 ft | 248 kts | 303° |
| 2026-04-21 19:22 | 62.77207 | -154.89898 | 13139 ft | 239 kts | 303° |
| 2026-04-21 19:22 | 62.78184 | -154.92765 | 13201 ft | 231 kts | 301° |
| 2026-04-21 19:22 | 62.79091 | -154.95618 | 13219 ft | 226 kts | 300° |
| 2026-04-21 19:23 | 62.79965 | -154.98395 | 13346 ft | 217 kts | 300° |
| 2026-04-21 19:23 | 62.80781 | -155.01168 | 13232 ft | 219 kts | 298° |
| 2026-04-21 19:23 | 62.81566 | -155.04095 | 12908 ft | 227 kts | 296° |
| 2026-04-21 19:23 | 62.82356 | -155.07109 | 12822 ft | 226 kts | 296° |
| 2026-04-21 19:24 | 62.83126 | -155.10043 | 12931 ft | 219 kts | 296° |
| 2026-04-21 19:24 | 62.83875 | -155.12889 | 13011 ft | 213 kts | 296° |
| 2026-04-21 19:24 | 62.84610 | -155.15668 | 13070 ft | 209 kts | 296° |
| 2026-04-21 19:24 | 62.85331 | -155.18400 | 13123 ft | 206 kts | 296° |
| 2026-04-21 19:25 | 62.85758 | -155.21331 | 13122 ft | 202 kts | 276° |
| 2026-04-21 19:25 | 62.85873 | -155.24395 | 13243 ft | 205 kts | 277° |
| 2026-04-21 19:25 | 62.86139 | -155.27496 | 13383 ft | 210 kts | 283° |
| 2026-04-21 19:25 | 62.86611 | -155.30556 | 13535 ft | 215 kts | 291° |
| 2026-04-21 19:26 | 62.87322 | -155.33472 | 13695 ft | 219 kts | 297° |
| 2026-04-21 19:26 | 62.88146 | -155.36301 | 13859 ft | 221 kts | 298° |
| 2026-04-21 19:26 | 62.88969 | -155.39159 | 14036 ft | 222 kts | 298° |
| 2026-04-21 19:26 | 62.89777 | -155.42046 | 14173 ft | 224 kts | 297° |
| 2026-04-21 19:27 | 62.90613 | -155.45041 | 14042 ft | 235 kts | 298° |
| 2026-04-21 19:27 | 62.91480 | -155.48146 | 14021 ft | 241 kts | 298° |
| 2026-04-21 19:27 | 62.92364 | -155.51308 | 14018 ft | 245 kts | 298° |
| 2026-04-21 19:27 | 62.93262 | -155.54517 | 14019 ft | 248 kts | 298° |
| 2026-04-21 19:28 | 62.94170 | -155.57769 | 14022 ft | 251 kts | 298° |
| 2026-04-21 19:28 | 62.95068 | -155.61079 | 14015 ft | 253 kts | 295° |
| 2026-04-21 19:28 | 62.95684 | -155.64703 | 14016 ft | 252 kts | 286° |
| 2026-04-21 19:28 | 62.96196 | -155.68321 | 14010 ft | 244 kts | 286° |
| 2026-04-21 19:29 | 62.96717 | -155.71814 | 14004 ft | 237 kts | 287° |
| 2026-04-21 19:29 | 62.97234 | -155.75207 | 14004 ft | 231 kts | 287° |
| 2026-04-21 19:29 | 62.97734 | -155.78527 | 14007 ft | 227 kts | 286° |
| 2026-04-21 19:29 | 62.98224 | -155.81799 | 14007 ft | 224 kts | 287° |
| 2026-04-21 19:30 | 62.98710 | -155.85036 | 13990 ft | 222 kts | 286° |
| 2026-04-21 19:30 | 62.99184 | -155.88196 | 13989 ft | 220 kts | 287° |
| 2026-04-21 19:30 | 62.99661 | -155.91387 | 13991 ft | 219 kts | 286° |
| 2026-04-21 19:30 | 63.00134 | -155.94556 | 13990 ft | 217 kts | 286° |
| 2026-04-21 19:31 | 63.00602 | -155.97710 | 13991 ft | 216 kts | 286° |
| 2026-04-21 19:31 | 63.01068 | -156.00844 | 13990 ft | 215 kts | 286° |
| 2026-04-21 19:31 | 63.01531 | -156.03957 | 13993 ft | 213 kts | 286° |
| 2026-04-21 19:31 | 63.01989 | -156.07062 | 14005 ft | 213 kts | 286° |
| 2026-04-21 19:32 | 63.02448 | -156.10159 | 13995 ft | 213 kts | 286° |
| 2026-04-21 19:32 | 63.02903 | -156.13256 | 13997 ft | 213 kts | 286° |
| 2026-04-21 19:32 | 63.03362 | -156.16352 | 13997 ft | 213 kts | 286° |
| 2026-04-21 19:32 | 63.03818 | -156.19454 | 14000 ft | 213 kts | 286° |
| 2026-04-21 19:33 | 63.04119 | -156.21503 | 14005 ft | 212 kts | 286° |
| 2026-04-21 19:33 | 63.04723 | -156.25645 | 14010 ft | 212 kts | 285° |
| 2026-04-21 19:33 | 63.05176 | -156.28739 | 14018 ft | 212 kts | 286° |
| 2026-04-21 19:33 | 63.05629 | -156.31833 | 14019 ft | 212 kts | 286° |
| 2026-04-21 19:34 | 63.06080 | -156.34927 | 14020 ft | 212 kts | 286° |
| 2026-04-21 19:34 | 63.06530 | -156.38015 | 14023 ft | 211 kts | 285° |
| 2026-04-21 19:34 | 63.06977 | -156.41103 | 14025 ft | 211 kts | 285° |
| 2026-04-21 19:34 | 63.07422 | -156.44191 | 14028 ft | 211 kts | 286° |
| 2026-04-21 19:35 | 63.07871 | -156.47276 | 14029 ft | 211 kts | 285° |
| 2026-04-21 19:35 | 63.08762 | -156.53458 | 14039 ft | 212 kts | 285° |
| 2026-04-21 19:35 | 63.09208 | -156.56547 | 14045 ft | 211 kts | 285° |
| 2026-04-21 19:36 | 63.09651 | -156.59642 | 14046 ft | 211 kts | 285° |
| 2026-04-21 19:36 | 63.10088 | -156.62696 | 14054 ft | 212 kts | 285° |
| 2026-04-21 19:36 | 63.10533 | -156.65788 | 14060 ft | 212 kts | 285° |
| 2026-04-21 19:36 | 63.10975 | -156.68896 | 14058 ft | 212 kts | 285° |
| 2026-04-21 19:37 | 63.11421 | -156.72001 | 14057 ft | 212 kts | 285° |
| 2026-04-21 19:37 | 63.11860 | -156.75099 | 14058 ft | 211 kts | 285° |
| 2026-04-21 19:37 | 63.12296 | -156.78190 | 14066 ft | 211 kts | 285° |
| 2026-04-21 19:37 | 63.12738 | -156.81280 | 14061 ft | 211 kts | 285° |
| 2026-04-21 19:38 | 63.13175 | -156.84370 | 14064 ft | 211 kts | 285° |
| 2026-04-21 19:38 | 63.13609 | -156.87459 | 14063 ft | 210 kts | 285° |
| 2026-04-21 19:38 | 63.13904 | -156.89544 | 14060 ft | 210 kts | 285° |
| 2026-04-21 19:38 | 63.14475 | -156.93618 | 14069 ft | 210 kts | 285° |
| 2026-04-21 19:39 | 63.14910 | -156.96688 | 14071 ft | 210 kts | 285° |
| 2026-04-21 19:39 | 63.15343 | -156.99777 | 14059 ft | 210 kts | 285° |
| 2026-04-21 19:39 | 63.15773 | -157.02860 | 14068 ft | 210 kts | 285° |
| 2026-04-21 19:39 | 63.16205 | -157.05943 | 14072 ft | 210 kts | 285° |
| 2026-04-21 19:40 | 63.16634 | -157.09022 | 14069 ft | 209 kts | 285° |
| 2026-04-21 19:40 | 63.17061 | -157.12095 | 14075 ft | 209 kts | 285° |
| 2026-04-21 19:40 | 63.17487 | -157.15170 | 14070 ft | 209 kts | 285° |
| 2026-04-21 19:40 | 63.17918 | -157.18243 | 14069 ft | 208 kts | 285° |
| 2026-04-21 19:41 | 63.18338 | -157.21310 | 14069 ft | 208 kts | 284° |
| 2026-04-21 19:41 | 63.18764 | -157.24380 | 14069 ft | 208 kts | 285° |
| 2026-04-21 19:41 | 63.19187 | -157.27446 | 14073 ft | 208 kts | 284° |
| 2026-04-21 19:41 | 63.19609 | -157.30507 | 14078 ft | 208 kts | 285° |
| 2026-04-21 19:42 | 63.20028 | -157.33579 | 14077 ft | 208 kts | 285° |
| 2026-04-21 19:42 | 63.20452 | -157.36649 | 14076 ft | 208 kts | 285° |
| 2026-04-21 19:42 | 63.20873 | -157.39722 | 14081 ft | 208 kts | 284° |
| 2026-04-21 19:42 | 63.21291 | -157.42790 | 14080 ft | 208 kts | 284° |
| 2026-04-21 19:43 | 63.21709 | -157.45858 | 14076 ft | 208 kts | 284° |
| 2026-04-21 19:43 | 63.22127 | -157.48926 | 14079 ft | 208 kts | 285° |
| 2026-04-21 19:43 | 63.22543 | -157.51990 | 14083 ft | 208 kts | 284° |
| 2026-04-21 19:43 | 63.22960 | -157.55065 | 14081 ft | 208 kts | 284° |
| 2026-04-21 19:44 | 63.23379 | -157.58133 | 14080 ft | 208 kts | 284° |
| 2026-04-21 19:44 | 63.23792 | -157.61194 | 14077 ft | 207 kts | 284° |
| 2026-04-21 19:44 | 63.24199 | -157.64258 | 14084 ft | 208 kts | 284° |
| 2026-04-21 19:44 | 63.24610 | -157.67284 | 14087 ft | 207 kts | 284° |
| 2026-04-21 19:45 | 63.25023 | -157.70351 | 14086 ft | 208 kts | 284° |
| 2026-04-21 19:45 | 63.25434 | -157.73428 | 14088 ft | 208 kts | 284° |
| 2026-04-21 19:45 | 63.25845 | -157.76498 | 14085 ft | 208 kts | 284° |
| 2026-04-21 19:45 | 63.26257 | -157.79573 | 14085 ft | 208 kts | 284° |
| 2026-04-21 19:46 | 63.26666 | -157.82648 | 14087 ft | 207 kts | 284° |
| 2026-04-21 19:46 | 63.27074 | -157.85718 | 14089 ft | 207 kts | 284° |
| 2026-04-21 19:46 | 63.27483 | -157.88787 | 14086 ft | 207 kts | 284° |
| 2026-04-21 19:46 | 63.27889 | -157.91853 | 14089 ft | 207 kts | 284° |
| 2026-04-21 19:47 | 63.28295 | -157.94913 | 14090 ft | 207 kts | 284° |
| 2026-04-21 19:47 | 63.28698 | -157.97977 | 14088 ft | 207 kts | 284° |
| 2026-04-21 19:47 | 63.29102 | -158.01040 | 14088 ft | 207 kts | 284° |
| 2026-04-21 19:47 | 63.29506 | -158.04103 | 14085 ft | 207 kts | 284° |
| 2026-04-21 19:48 | 63.29907 | -158.07166 | 14083 ft | 206 kts | 284° |
| 2026-04-21 19:48 | 63.30309 | -158.10227 | 14083 ft | 206 kts | 284° |
| 2026-04-21 19:48 | 63.30710 | -158.13282 | 14085 ft | 206 kts | 284° |
| 2026-04-21 19:48 | 63.31107 | -158.16340 | 14084 ft | 206 kts | 284° |
| 2026-04-21 19:49 | 63.31506 | -158.19391 | 14084 ft | 205 kts | 284° |
| 2026-04-21 19:49 | 63.31902 | -158.22442 | 14090 ft | 205 kts | 284° |
| 2026-04-21 19:49 | 63.32298 | -158.25487 | 14090 ft | 205 kts | 284° |
| 2026-04-21 19:49 | 63.32692 | -158.28535 | 14086 ft | 205 kts | 284° |
| 2026-04-21 19:50 | 63.32953 | -158.30553 | 14089 ft | 205 kts | 284° |
| 2026-04-21 19:50 | 63.33479 | -158.34624 | 14086 ft | 205 kts | 284° |
| 2026-04-21 19:50 | 63.33872 | -158.37663 | 14086 ft | 204 kts | 284° |
| 2026-04-21 19:50 | 63.34261 | -158.40707 | 14086 ft | 205 kts | 284° |
| 2026-04-21 19:51 | 63.34653 | -158.43756 | 14081 ft | 205 kts | 284° |
| 2026-04-21 19:51 | 63.35044 | -158.46803 | 14082 ft | 205 kts | 284° |
| 2026-04-21 19:51 | 63.35433 | -158.49845 | 14085 ft | 204 kts | 284° |
| 2026-04-21 19:51 | 63.35821 | -158.52889 | 14083 ft | 204 kts | 284° |
| 2026-04-21 19:52 | 63.36207 | -158.55926 | 14081 ft | 204 kts | 284° |
| 2026-04-21 19:52 | 63.36593 | -158.58965 | 14084 ft | 204 kts | 284° |
| 2026-04-21 19:52 | 63.36979 | -158.62002 | 14084 ft | 204 kts | 284° |
| 2026-04-21 19:52 | 63.37364 | -158.65038 | 14081 ft | 203 kts | 284° |
| 2026-04-21 19:53 | 63.37746 | -158.68069 | 14081 ft | 203 kts | 284° |
| 2026-04-21 19:53 | 63.38128 | -158.71104 | 14083 ft | 203 kts | 284° |
| 2026-04-21 19:53 | 63.38511 | -158.74133 | 14083 ft | 203 kts | 284° |
| 2026-04-21 19:53 | 63.38890 | -158.77162 | 14084 ft | 203 kts | 284° |
| 2026-04-21 19:54 | 63.39267 | -158.80156 | 14079 ft | 203 kts | 284° |
| 2026-04-21 19:54 | 63.39646 | -158.83186 | 14083 ft | 203 kts | 284° |
| 2026-04-21 19:54 | 63.40023 | -158.86224 | 14083 ft | 203 kts | 284° |
| 2026-04-21 19:54 | 63.40405 | -158.89259 | 14080 ft | 203 kts | 284° |
| 2026-04-21 19:55 | 63.40782 | -158.92295 | 14083 ft | 203 kts | 284° |
| 2026-04-21 19:55 | 63.41158 | -158.95332 | 14085 ft | 203 kts | 284° |
| 2026-04-21 19:55 | 63.41533 | -158.98367 | 14082 ft | 203 kts | 284° |
| 2026-04-21 19:55 | 63.41910 | -159.01412 | 14084 ft | 204 kts | 284° |
| 2026-04-21 19:56 | 63.42287 | -159.04454 | 14086 ft | 203 kts | 284° |
| 2026-04-21 19:56 | 63.42663 | -159.07496 | 14084 ft | 203 kts | 284° |
| 2026-04-21 19:56 | 63.43034 | -159.10545 | 14086 ft | 204 kts | 284° |
| 2026-04-21 19:56 | 63.43409 | -159.13591 | 14091 ft | 203 kts | 284° |
| 2026-04-21 19:57 | 63.43782 | -159.16637 | 14089 ft | 203 kts | 284° |
| 2026-04-21 19:57 | 63.44155 | -159.19682 | 14088 ft | 203 kts | 284° |
| 2026-04-21 19:57 | 63.44524 | -159.22728 | 14091 ft | 203 kts | 284° |
| 2026-04-21 19:57 | 63.44896 | -159.25776 | 14088 ft | 203 kts | 284° |
| 2026-04-21 19:58 | 63.45269 | -159.28826 | 14089 ft | 203 kts | 284° |
| 2026-04-21 19:58 | 63.45638 | -159.31880 | 14093 ft | 204 kts | 284° |
| 2026-04-21 19:58 | 63.46007 | -159.34933 | 14093 ft | 203 kts | 284° |
| 2026-04-21 19:58 | 63.46375 | -159.37987 | 14090 ft | 203 kts | 284° |
| 2026-04-21 19:59 | 63.46743 | -159.41039 | 14096 ft | 203 kts | 284° |
| 2026-04-21 19:59 | 63.47110 | -159.44092 | 14094 ft | 203 kts | 284° |
| 2026-04-21 19:59 | 63.47477 | -159.47145 | 14092 ft | 203 kts | 284° |
| 2026-04-21 19:59 | 63.47842 | -159.50194 | 14095 ft | 203 kts | 284° |
| 2026-04-21 20:00 | 63.48084 | -159.52214 | 14095 ft | 203 kts | 284° |
| 2026-04-21 20:00 | 63.48446 | -159.55267 | 14099 ft | 203 kts | 284° |
| 2026-04-21 20:00 | 63.48812 | -159.58323 | 14101 ft | 203 kts | 284° |
| 2026-04-21 20:00 | 63.49175 | -159.61377 | 14102 ft | 203 kts | 284° |
| 2026-04-21 20:01 | 63.49537 | -159.64434 | 14097 ft | 203 kts | 284° |
| 2026-04-21 20:01 | 63.49895 | -159.67491 | 14095 ft | 203 kts | 284° |
| 2026-04-21 20:01 | 63.50260 | -159.70537 | 14102 ft | 203 kts | 284° |
| 2026-04-21 20:01 | 63.50616 | -159.73600 | 14100 ft | 204 kts | 284° |
| 2026-04-21 20:02 | 63.50985 | -159.76666 | 14103 ft | 203 kts | 284° |
| 2026-04-21 20:02 | 63.51342 | -159.79725 | 14104 ft | 203 kts | 283° |
| 2026-04-21 20:02 | 63.51697 | -159.82792 | 14106 ft | 203 kts | 284° |
| 2026-04-21 20:02 | 63.52053 | -159.85850 | 14108 ft | 203 kts | 283° |
| 2026-04-21 20:03 | 63.52413 | -159.88914 | 14112 ft | 203 kts | 283° |
| 2026-04-21 20:03 | 63.52771 | -159.91984 | 14115 ft | 204 kts | 284° |
| 2026-04-21 20:03 | 63.53131 | -159.95068 | 14111 ft | 204 kts | 284° |
| 2026-04-21 20:03 | 63.53490 | -159.98146 | 14113 ft | 205 kts | 283° |
| 2026-04-21 20:04 | 63.53846 | -160.01226 | 14116 ft | 204 kts | 283° |
| 2026-04-21 20:04 | 63.54199 | -160.04308 | 14112 ft | 204 kts | 283° |
| 2026-04-21 20:04 | 63.54546 | -160.07350 | 14117 ft | 205 kts | 283° |
| 2026-04-21 20:04 | 63.54904 | -160.10442 | 14117 ft | 205 kts | 283° |
| 2026-04-21 20:05 | 63.55262 | -160.13540 | 14125 ft | 205 kts | 283° |
| 2026-04-21 20:05 | 63.55616 | -160.16651 | 14121 ft | 206 kts | 283° |
| 2026-04-21 20:05 | 63.55972 | -160.19760 | 14125 ft | 206 kts | 283° |
| 2026-04-21 20:05 | 63.56327 | -160.22863 | 14119 ft | 205 kts | 283° |
| 2026-04-21 20:06 | 63.56678 | -160.25961 | 14128 ft | 204 kts | 283° |
| 2026-04-21 20:06 | 63.57027 | -160.29064 | 14123 ft | 206 kts | 283° |
| 2026-04-21 20:06 | 63.57384 | -160.32171 | 14130 ft | 206 kts | 283° |
| 2026-04-21 20:06 | 63.57735 | -160.35288 | 14131 ft | 206 kts | 283° |
| 2026-04-21 20:07 | 63.58089 | -160.38406 | 14131 ft | 205 kts | 283° |
| 2026-04-21 20:07 | 63.58436 | -160.41521 | 14133 ft | 206 kts | 283° |
| 2026-04-21 20:07 | 63.58785 | -160.44652 | 14129 ft | 207 kts | 283° |
| 2026-04-21 20:07 | 63.59142 | -160.47785 | 14132 ft | 207 kts | 283° |
| 2026-04-21 20:08 | 63.59490 | -160.50933 | 14134 ft | 208 kts | 283° |
| 2026-04-21 20:08 | 63.59844 | -160.54077 | 14136 ft | 207 kts | 283° |
| 2026-04-21 20:08 | 63.60191 | -160.57219 | 14138 ft | 207 kts | 282° |
| 2026-04-21 20:08 | 63.60540 | -160.60364 | 14138 ft | 207 kts | 283° |
| 2026-04-21 20:09 | 63.60889 | -160.63512 | 14129 ft | 208 kts | 283° |
| 2026-04-21 20:09 | 63.61239 | -160.66657 | 14133 ft | 207 kts | 282° |
| 2026-04-21 20:09 | 63.61584 | -160.69808 | 14135 ft | 208 kts | 282° |
| 2026-04-21 20:09 | 63.61936 | -160.72954 | 14136 ft | 207 kts | 283° |
| 2026-04-21 20:10 | 63.62278 | -160.76106 | 14133 ft | 207 kts | 282° |
| 2026-04-21 20:10 | 63.62620 | -160.79254 | 14131 ft | 207 kts | 283° |
| 2026-04-21 20:10 | 63.62965 | -160.82409 | 14132 ft | 208 kts | 282° |
| 2026-04-21 20:10 | 63.63315 | -160.85570 | 14130 ft | 208 kts | 282° |
| 2026-04-21 20:11 | 63.63657 | -160.88731 | 14131 ft | 208 kts | 282° |
| 2026-04-21 20:11 | 63.64002 | -160.91900 | 14129 ft | 208 kts | 282° |
| 2026-04-21 20:11 | 63.64345 | -160.95073 | 14126 ft | 209 kts | 282° |
| 2026-04-21 20:11 | 63.64688 | -160.98238 | 14125 ft | 208 kts | 282° |
| 2026-04-21 20:12 | 63.65025 | -161.01401 | 14123 ft | 208 kts | 282° |
| 2026-04-21 20:12 | 63.65366 | -161.04558 | 14122 ft | 207 kts | 282° |
| 2026-04-21 20:12 | 63.65708 | -161.07712 | 14120 ft | 207 kts | 282° |
| 2026-04-21 20:12 | 63.66043 | -161.10860 | 14117 ft | 207 kts | 282° |
| 2026-04-21 20:13 | 63.66380 | -161.14008 | 14118 ft | 207 kts | 282° |
| 2026-04-21 20:13 | 63.66715 | -161.17153 | 14118 ft | 206 kts | 282° |
| 2026-04-21 20:13 | 63.67050 | -161.20299 | 14110 ft | 206 kts | 282° |
| 2026-04-21 20:13 | 63.67383 | -161.23440 | 14109 ft | 206 kts | 282° |
| 2026-04-21 20:14 | 63.67716 | -161.26581 | 14108 ft | 206 kts | 282° |
| 2026-04-21 20:14 | 63.68048 | -161.29722 | 14106 ft | 206 kts | 282° |
| 2026-04-21 20:14 | 63.68375 | -161.32817 | 14106 ft | 206 kts | 282° |
| 2026-04-21 20:14 | 63.68708 | -161.35999 | 14103 ft | 206 kts | 282° |
| 2026-04-21 20:15 | 63.69033 | -161.39097 | 14101 ft | 206 kts | 282° |
| 2026-04-21 20:15 | 63.69363 | -161.42238 | 14099 ft | 206 kts | 282° |
| 2026-04-21 20:15 | 63.69691 | -161.45378 | 14096 ft | 206 kts | 282° |
| 2026-04-21 20:15 | 63.70018 | -161.48517 | 14092 ft | 206 kts | 282° |
| 2026-04-21 20:16 | 63.70346 | -161.51660 | 14098 ft | 206 kts | 282° |
| 2026-04-21 20:16 | 63.70671 | -161.54801 | 14095 ft | 206 kts | 281° |
| 2026-04-21 20:16 | 63.70995 | -161.57944 | 14094 ft | 206 kts | 281° |
| 2026-04-21 20:16 | 63.71319 | -161.61084 | 14096 ft | 206 kts | 281° |
| 2026-04-21 20:17 | 63.71644 | -161.64229 | 14096 ft | 206 kts | 282° |
| 2026-04-21 20:17 | 63.71967 | -161.67372 | 14095 ft | 206 kts | 281° |
| 2026-04-21 20:17 | 63.72290 | -161.70516 | 14096 ft | 206 kts | 281° |
| 2026-04-21 20:17 | 63.72611 | -161.73661 | 14096 ft | 206 kts | 281° |
| 2026-04-21 20:18 | 63.72824 | -161.75743 | 14095 ft | 206 kts | 281° |
| 2026-04-21 20:18 | 63.73252 | -161.79953 | 14095 ft | 206 kts | 281° |
| 2026-04-21 20:18 | 63.73573 | -161.83099 | 14100 ft | 206 kts | 281° |
| 2026-04-21 20:18 | 63.73891 | -161.86248 | 14100 ft | 206 kts | 281° |
| 2026-04-21 20:19 | 63.74209 | -161.89402 | 14096 ft | 206 kts | 281° |
| 2026-04-21 20:19 | 63.74527 | -161.92549 | 14101 ft | 206 kts | 281° |
| 2026-04-21 20:19 | 63.74844 | -161.95704 | 14099 ft | 206 kts | 281° |
| 2026-04-21 20:19 | 63.75162 | -161.98857 | 14099 ft | 206 kts | 281° |
| 2026-04-21 20:20 | 63.75476 | -162.02012 | 14097 ft | 206 kts | 281° |
| 2026-04-21 20:20 | 63.75791 | -162.05168 | 14100 ft | 206 kts | 281° |
| 2026-04-21 20:20 | 63.76107 | -162.08323 | 14100 ft | 206 kts | 281° |
| 2026-04-21 20:20 | 63.76421 | -162.11481 | 14099 ft | 206 kts | 281° |
| 2026-04-21 20:21 | 63.76733 | -162.14639 | 14100 ft | 206 kts | 281° |
| 2026-04-21 20:21 | 63.77047 | -162.17797 | 14106 ft | 206 kts | 281° |
| 2026-04-21 20:21 | 63.77354 | -162.20917 | 14103 ft | 206 kts | 281° |
| 2026-04-21 20:21 | 63.77666 | -162.24079 | 14103 ft | 206 kts | 281° |
| 2026-04-21 20:22 | 63.77974 | -162.27242 | 14103 ft | 206 kts | 281° |
| 2026-04-21 20:22 | 63.78595 | -162.33569 | 14102 ft | 206 kts | 281° |
| 2026-04-21 20:22 | 63.78903 | -162.36734 | 14102 ft | 206 kts | 281° |
| 2026-04-21 20:23 | 63.79210 | -162.39897 | 14103 ft | 206 kts | 281° |
| 2026-04-21 20:23 | 63.79518 | -162.43062 | 14103 ft | 206 kts | 281° |
| 2026-04-21 20:23 | 63.79824 | -162.46231 | 14104 ft | 206 kts | 281° |
| 2026-04-21 20:23 | 63.80130 | -162.49397 | 14107 ft | 206 kts | 281° |
| 2026-04-21 20:24 | 63.80436 | -162.52564 | 14104 ft | 206 kts | 281° |
| 2026-04-21 20:24 | 63.80739 | -162.55732 | 14106 ft | 206 kts | 281° |
| 2026-04-21 20:24 | 63.81042 | -162.58900 | 14109 ft | 206 kts | 281° |
| 2026-04-21 20:24 | 63.81346 | -162.62069 | 14105 ft | 206 kts | 281° |
| 2026-04-21 20:25 | 63.81647 | -162.65242 | 14109 ft | 206 kts | 281° |
| 2026-04-21 20:25 | 63.81949 | -162.68414 | 14108 ft | 206 kts | 281° |
| 2026-04-21 20:25 | 63.82251 | -162.71585 | 14110 ft | 206 kts | 281° |
| 2026-04-21 20:25 | 63.82550 | -162.74758 | 14108 ft | 206 kts | 280° |
| 2026-04-21 20:26 | 63.82850 | -162.77936 | 14112 ft | 206 kts | 280° |
| 2026-04-21 20:26 | 63.83149 | -162.81113 | 14109 ft | 206 kts | 280° |
| 2026-04-21 20:26 | 63.83448 | -162.84288 | 14111 ft | 206 kts | 280° |
| 2026-04-21 20:26 | 63.83744 | -162.87466 | 14109 ft | 206 kts | 280° |
| 2026-04-21 20:27 | 63.84042 | -162.90642 | 14110 ft | 206 kts | 280° |
| 2026-04-21 20:27 | 63.84338 | -162.93820 | 14109 ft | 206 kts | 280° |
| 2026-04-21 20:27 | 63.84633 | -162.96999 | 14111 ft | 206 kts | 280° |
| 2026-04-21 20:27 | 63.84927 | -163.00181 | 14113 ft | 206 kts | 280° |
| 2026-04-21 20:28 | 63.85222 | -163.03357 | 14111 ft | 206 kts | 280° |
| 2026-04-21 20:28 | 63.85514 | -163.06539 | 14112 ft | 206 kts | 280° |
| 2026-04-21 20:28 | 63.85808 | -163.09720 | 14112 ft | 206 kts | 280° |
| 2026-04-21 20:28 | 63.86096 | -163.12863 | 14108 ft | 206 kts | 280° |
| 2026-04-21 20:29 | 63.86387 | -163.16043 | 14115 ft | 206 kts | 280° |
| 2026-04-21 20:29 | 63.86677 | -163.19228 | 14116 ft | 206 kts | 280° |
| 2026-04-21 20:29 | 63.86967 | -163.22415 | 14113 ft | 206 kts | 280° |
| 2026-04-21 20:29 | 63.87258 | -163.25601 | 14115 ft | 206 kts | 280° |
| 2026-04-21 20:30 | 63.87545 | -163.28790 | 14111 ft | 206 kts | 280° |
| 2026-04-21 20:30 | 63.87834 | -163.31980 | 14112 ft | 206 kts | 280° |
| 2026-04-21 20:30 | 63.88120 | -163.35169 | 14111 ft | 206 kts | 280° |
| 2026-04-21 20:30 | 63.88407 | -163.38361 | 14110 ft | 206 kts | 280° |
| 2026-04-21 20:31 | 63.88695 | -163.41551 | 14113 ft | 206 kts | 280° |
| 2026-04-21 20:31 | 63.88980 | -163.44748 | 14111 ft | 206 kts | 280° |
| 2026-04-21 20:31 | 63.89263 | -163.47944 | 14115 ft | 207 kts | 280° |
| 2026-04-21 20:31 | 63.89547 | -163.51139 | 14114 ft | 207 kts | 280° |
| 2026-04-21 20:32 | 63.89830 | -163.54335 | 14114 ft | 207 kts | 280° |
| 2026-04-21 20:32 | 63.90113 | -163.57535 | 14118 ft | 207 kts | 280° |
| 2026-04-21 20:32 | 63.90396 | -163.60734 | 14115 ft | 207 kts | 280° |
| 2026-04-21 20:32 | 63.90677 | -163.63932 | 14119 ft | 207 kts | 280° |
| 2026-04-21 20:33 | 63.90957 | -163.67130 | 14115 ft | 207 kts | 280° |
| 2026-04-21 20:33 | 63.91238 | -163.70333 | 14116 ft | 207 kts | 280° |
| 2026-04-21 20:33 | 63.91517 | -163.73539 | 14115 ft | 207 kts | 279° |
| 2026-04-21 20:33 | 63.91796 | -163.76741 | 14114 ft | 207 kts | 279° |
| 2026-04-21 20:34 | 63.92073 | -163.79946 | 14117 ft | 207 kts | 279° |
| 2026-04-21 20:34 | 63.92350 | -163.83150 | 14116 ft | 207 kts | 279° |
| 2026-04-21 20:34 | 63.92627 | -163.86357 | 14120 ft | 207 kts | 279° |
| 2026-04-21 20:34 | 63.92902 | -163.89562 | 14119 ft | 207 kts | 279° |
| 2026-04-21 20:35 | 63.93178 | -163.92771 | 14116 ft | 207 kts | 279° |
| 2026-04-21 20:35 | 63.93454 | -163.95983 | 14119 ft | 207 kts | 279° |
| 2026-04-21 20:35 | 63.93726 | -163.99187 | 14119 ft | 207 kts | 279° |
| 2026-04-21 20:35 | 63.93999 | -164.02398 | 14117 ft | 207 kts | 279° |
| 2026-04-21 20:36 | 63.94271 | -164.05612 | 14123 ft | 207 kts | 279° |
| 2026-04-21 20:36 | 63.94543 | -164.08823 | 14121 ft | 207 kts | 279° |
| 2026-04-21 20:36 | 63.94814 | -164.12037 | 14120 ft | 207 kts | 279° |
| 2026-04-21 20:36 | 63.95085 | -164.15248 | 14120 ft | 207 kts | 279° |
| 2026-04-21 20:37 | 63.95351 | -164.18421 | 14121 ft | 207 kts | 279° |
| 2026-04-21 20:37 | 63.95619 | -164.21636 | 14120 ft | 207 kts | 279° |
| 2026-04-21 20:37 | 63.95888 | -164.24856 | 14119 ft | 207 kts | 279° |
| 2026-04-21 20:37 | 63.96156 | -164.28074 | 14118 ft | 207 kts | 279° |
| 2026-04-21 20:38 | 63.96423 | -164.31293 | 14121 ft | 207 kts | 279° |
| 2026-04-21 20:38 | 63.96690 | -164.34512 | 14120 ft | 207 kts | 279° |
| 2026-04-21 20:38 | 63.96955 | -164.37737 | 14120 ft | 207 kts | 279° |
| 2026-04-21 20:38 | 63.97219 | -164.40959 | 14121 ft | 207 kts | 279° |
| 2026-04-21 20:39 | 63.97485 | -164.44185 | 14118 ft | 207 kts | 279° |
| 2026-04-21 20:39 | 63.97748 | -164.47409 | 14117 ft | 207 kts | 279° |
| 2026-04-21 20:39 | 63.98011 | -164.50636 | 14117 ft | 207 kts | 279° |
| 2026-04-21 20:39 | 63.98273 | -164.53865 | 14119 ft | 207 kts | 279° |
| 2026-04-21 20:40 | 63.98534 | -164.57094 | 14122 ft | 207 kts | 279° |
| 2026-04-21 20:40 | 63.98796 | -164.60327 | 14122 ft | 207 kts | 279° |
| 2026-04-21 20:40 | 63.99056 | -164.63558 | 14122 ft | 207 kts | 279° |
| 2026-04-21 20:40 | 63.99316 | -164.66791 | 14122 ft | 208 kts | 279° |
| 2026-04-21 20:41 | 63.99575 | -164.70027 | 14119 ft | 208 kts | 279° |
| 2026-04-21 20:41 | 63.99833 | -164.73263 | 14119 ft | 208 kts | 279° |
| 2026-04-21 20:41 | 64.00091 | -164.76499 | 14120 ft | 208 kts | 279° |
| 2026-04-21 20:41 | 64.00349 | -164.79738 | 14117 ft | 208 kts | 279° |
| 2026-04-21 20:42 | 64.00603 | -164.82979 | 14117 ft | 208 kts | 279° |
| 2026-04-21 20:42 | 64.00860 | -164.86215 | 14117 ft | 208 kts | 279° |
| 2026-04-21 20:42 | 64.01115 | -164.89458 | 14119 ft | 208 kts | 279° |
| 2026-04-21 20:42 | 64.01370 | -164.92701 | 14117 ft | 208 kts | 279° |
| 2026-04-21 20:43 | 64.01622 | -164.95943 | 14121 ft | 208 kts | 279° |
| 2026-04-21 20:43 | 64.01875 | -164.99186 | 14120 ft | 208 kts | 279° |
| 2026-04-21 20:43 | 64.02129 | -165.02432 | 14118 ft | 208 kts | 279° |
| 2026-04-21 20:43 | 64.02379 | -165.05678 | 14119 ft | 208 kts | 278° |
| 2026-04-21 20:44 | 64.02629 | -165.08927 | 14115 ft | 208 kts | 279° |
| 2026-04-21 20:44 | 64.02880 | -165.12174 | 14119 ft | 208 kts | 278° |
| 2026-04-21 20:44 | 64.03129 | -165.15426 | 14125 ft | 208 kts | 278° |
| 2026-04-21 20:44 | 64.03379 | -165.18678 | 14124 ft | 208 kts | 278° |
| 2026-04-21 20:45 | 64.03626 | -165.21928 | 14122 ft | 208 kts | 278° |
| 2026-04-21 20:45 | 64.03874 | -165.25183 | 14120 ft | 208 kts | 278° |
| 2026-04-21 20:45 | 64.04122 | -165.28441 | 14123 ft | 208 kts | 278° |
| 2026-04-21 20:45 | 64.04366 | -165.31701 | 14124 ft | 208 kts | 278° |
| 2026-04-21 20:46 | 64.04611 | -165.34919 | 14128 ft | 209 kts | 278° |
| 2026-04-21 20:46 | 64.04855 | -165.38182 | 14128 ft | 209 kts | 278° |
| 2026-04-21 20:46 | 64.05099 | -165.41446 | 14129 ft | 209 kts | 278° |
| 2026-04-21 20:46 | 64.05343 | -165.44709 | 14126 ft | 209 kts | 278° |
| 2026-04-21 20:47 | 64.05585 | -165.47976 | 14127 ft | 209 kts | 278° |
| 2026-04-21 20:47 | 64.05828 | -165.51243 | 14125 ft | 209 kts | 278° |
| 2026-04-21 20:47 | 64.06069 | -165.54510 | 14127 ft | 209 kts | 278° |
| 2026-04-21 20:47 | 64.06310 | -165.57780 | 14128 ft | 209 kts | 278° |
| 2026-04-21 20:48 | 64.06551 | -165.61053 | 14122 ft | 209 kts | 278° |
| 2026-04-21 20:48 | 64.06790 | -165.64324 | 14127 ft | 209 kts | 278° |
| 2026-04-21 20:48 | 64.07029 | -165.67598 | 14125 ft | 209 kts | 278° |
| 2026-04-21 20:48 | 64.07267 | -165.70869 | 14128 ft | 209 kts | 278° |
| 2026-04-21 20:49 | 64.07505 | -165.74146 | 14127 ft | 209 kts | 278° |
| 2026-04-21 20:49 | 64.07741 | -165.77423 | 14128 ft | 209 kts | 278° |
| 2026-04-21 20:49 | 64.07977 | -165.80699 | 14131 ft | 209 kts | 278° |
| 2026-04-21 20:49 | 64.08213 | -165.83979 | 14128 ft | 209 kts | 278° |
| 2026-04-21 20:50 | 64.08448 | -165.87260 | 14124 ft | 209 kts | 278° |
| 2026-04-21 20:50 | 64.08680 | -165.90544 | 14129 ft | 209 kts | 278° |
| 2026-04-21 20:50 | 64.08915 | -165.93828 | 14130 ft | 209 kts | 278° |
| 2026-04-21 20:50 | 64.09149 | -165.97111 | 14126 ft | 209 kts | 278° |
| 2026-04-21 20:51 | 64.09379 | -166.00398 | 14126 ft | 209 kts | 278° |
| 2026-04-21 20:51 | 64.09610 | -166.03689 | 14126 ft | 210 kts | 278° |
| 2026-04-21 20:51 | 64.09841 | -166.06977 | 14130 ft | 210 kts | 278° |
| 2026-04-21 20:51 | 64.10071 | -166.10269 | 14129 ft | 210 kts | 278° |
| 2026-04-21 20:52 | 64.10306 | -166.13558 | 14130 ft | 210 kts | 278° |
| 2026-04-21 20:52 | 64.10471 | -166.15736 | 14127 ft | 210 kts | 279° |
| 2026-04-21 20:52 | 64.10717 | -166.19022 | 14133 ft | 210 kts | 278° |
| 2026-04-21 20:52 | 64.10961 | -166.22314 | 14131 ft | 210 kts | 278° |
| 2026-04-21 20:53 | 64.11202 | -166.25605 | 14129 ft | 210 kts | 278° |
| 2026-04-21 20:53 | 64.11443 | -166.28897 | 14133 ft | 210 kts | 278° |
| 2026-04-21 20:53 | 64.11684 | -166.32191 | 14135 ft | 210 kts | 278° |
| 2026-04-21 20:53 | 64.12004 | -166.36596 | 14016 ft | 214 kts | 278° |
| 2026-04-21 20:54 | 64.12169 | -166.38866 | 14023 ft | 214 kts | 278° |
| 2026-04-21 20:54 | 64.12411 | -166.42218 | 14023 ft | 213 kts | 278° |
| 2026-04-21 20:54 | 64.12652 | -166.45569 | 14020 ft | 213 kts | 278° |
| 2026-04-21 20:54 | 64.12893 | -166.48918 | 14014 ft | 213 kts | 278° |
| 2026-04-21 20:55 | 64.13131 | -166.52263 | 14015 ft | 213 kts | 278° |
| 2026-04-21 20:55 | 64.13371 | -166.55608 | 14015 ft | 213 kts | 278° |
| 2026-04-21 20:55 | 64.13443 | -166.58984 | 13995 ft | 215 kts | 263° |
| 2026-04-21 20:55 | 64.13104 | -166.62314 | 14005 ft | 215 kts | 258° |
| 2026-04-21 20:56 | 64.12745 | -166.65625 | 14007 ft | 214 kts | 259° |
| 2026-04-21 20:56 | 64.12415 | -166.68948 | 14014 ft | 214 kts | 260° |
| 2026-04-21 20:56 | 64.12087 | -166.72268 | 14013 ft | 214 kts | 259° |
| 2026-04-21 20:56 | 64.11754 | -166.75586 | 14016 ft | 214 kts | 259° |
| 2026-04-21 20:57 | 64.11421 | -166.78903 | 14004 ft | 214 kts | 259° |
| 2026-04-21 20:57 | 64.11089 | -166.82218 | 14001 ft | 214 kts | 259° |
| 2026-04-21 20:57 | 64.10756 | -166.85527 | 14008 ft | 214 kts | 259° |
| 2026-04-21 20:57 | 64.10421 | -166.88842 | 14012 ft | 214 kts | 259° |
| 2026-04-21 20:58 | 64.10085 | -166.92151 | 14016 ft | 214 kts | 259° |
| 2026-04-21 20:58 | 64.09749 | -166.95462 | 14012 ft | 214 kts | 259° |
| 2026-04-21 20:58 | 64.09412 | -166.98770 | 14014 ft | 214 kts | 259° |
| 2026-04-21 20:58 | 64.09076 | -167.02082 | 14011 ft | 214 kts | 259° |
| 2026-04-21 20:59 | 64.08736 | -167.05390 | 14014 ft | 214 kts | 259° |
| 2026-04-21 20:59 | 64.08402 | -167.08655 | 14016 ft | 214 kts | 259° |
| 2026-04-21 20:59 | 64.08063 | -167.11965 | 14009 ft | 214 kts | 259° |
| 2026-04-21 20:59 | 64.07722 | -167.15270 | 14015 ft | 214 kts | 259° |
| 2026-04-21 21:00 | 64.07381 | -167.18576 | 14020 ft | 214 kts | 259° |
| 2026-04-21 21:00 | 64.07038 | -167.21878 | 14023 ft | 214 kts | 259° |
| 2026-04-21 21:00 | 64.06696 | -167.25178 | 14017 ft | 214 kts | 259° |
| 2026-04-21 21:00 | 64.06354 | -167.28481 | 14020 ft | 214 kts | 259° |
| 2026-04-21 21:01 | 64.06007 | -167.31786 | 14004 ft | 214 kts | 259° |
| 2026-04-21 21:01 | 64.05664 | -167.35088 | 14011 ft | 214 kts | 259° |
| 2026-04-21 21:01 | 64.05317 | -167.38394 | 14009 ft | 214 kts | 259° |
| 2026-04-21 21:01 | 64.04969 | -167.41698 | 14009 ft | 214 kts | 259° |
| 2026-04-21 21:02 | 64.04621 | -167.45004 | 14013 ft | 214 kts | 259° |
| 2026-04-21 21:02 | 64.04273 | -167.48307 | 14024 ft | 214 kts | 259° |
| 2026-04-21 21:02 | 64.03924 | -167.51611 | 14023 ft | 214 kts | 259° |
| 2026-04-21 21:02 | 64.03574 | -167.54914 | 14011 ft | 214 kts | 259° |
| 2026-04-21 21:03 | 64.03222 | -167.58221 | 14012 ft | 214 kts | 259° |
| 2026-04-21 21:03 | 64.02871 | -167.61528 | 14021 ft | 215 kts | 258° |
| 2026-04-21 21:03 | 64.02515 | -167.64832 | 14017 ft | 214 kts | 258° |
| 2026-04-21 21:03 | 64.02162 | -167.68138 | 14022 ft | 215 kts | 259° |
| 2026-04-21 21:04 | 64.01808 | -167.71443 | 14026 ft | 214 kts | 258° |
| 2026-04-21 21:04 | 64.01453 | -167.74745 | 14020 ft | 215 kts | 258° |
| 2026-04-21 21:04 | 64.01096 | -167.78047 | 14013 ft | 215 kts | 258° |
| 2026-04-21 21:04 | 64.00740 | -167.81354 | 14014 ft | 215 kts | 258° |
| 2026-04-21 21:05 | 64.00381 | -167.84659 | 14019 ft | 215 kts | 258° |
| 2026-04-21 21:05 | 64.00027 | -167.87922 | 14027 ft | 215 kts | 258° |
| 2026-04-21 21:05 | 63.99667 | -167.91231 | 14027 ft | 215 kts | 258° |
| 2026-04-21 21:05 | 63.99307 | -167.94538 | 14029 ft | 215 kts | 258° |
| 2026-04-21 21:06 | 63.98946 | -167.97848 | 14021 ft | 215 kts | 258° |
| 2026-04-21 21:06 | 63.98581 | -168.01162 | 14021 ft | 216 kts | 258° |
| 2026-04-21 21:06 | 63.98216 | -168.04474 | 14013 ft | 216 kts | 258° |
| 2026-04-21 21:06 | 63.97853 | -168.07791 | 14013 ft | 216 kts | 258° |
| 2026-04-21 21:07 | 63.97486 | -168.11106 | 14022 ft | 216 kts | 258° |
| 2026-04-21 21:07 | 63.97118 | -168.14425 | 14018 ft | 216 kts | 258° |
| 2026-04-21 21:07 | 63.96752 | -168.17744 | 14025 ft | 216 kts | 258° |
| 2026-04-21 21:07 | 63.96383 | -168.21063 | 14025 ft | 216 kts | 258° |
| 2026-04-21 21:08 | 63.96011 | -168.24380 | 14027 ft | 216 kts | 258° |
| 2026-04-21 21:08 | 63.95643 | -168.27702 | 14029 ft | 217 kts | 258° |
| 2026-04-21 21:08 | 63.95270 | -168.31024 | 14022 ft | 217 kts | 258° |
| 2026-04-21 21:08 | 63.94897 | -168.34347 | 14026 ft | 217 kts | 258° |
| 2026-04-21 21:09 | 63.94523 | -168.37674 | 14029 ft | 217 kts | 258° |
| 2026-04-21 21:09 | 63.94149 | -168.41000 | 14027 ft | 217 kts | 258° |
| 2026-04-21 21:09 | 63.93773 | -168.44323 | 14023 ft | 217 kts | 258° |
| 2026-04-21 21:09 | 63.93396 | -168.47651 | 14026 ft | 217 kts | 258° |
| 2026-04-21 21:10 | 63.93019 | -168.50980 | 14021 ft | 218 kts | 258° |
| 2026-04-21 21:10 | 63.92639 | -168.54311 | 14020 ft | 218 kts | 258° |
| 2026-04-21 21:10 | 63.92260 | -168.57641 | 14024 ft | 218 kts | 258° |
| 2026-04-21 21:10 | 63.91880 | -168.60971 | 14022 ft | 218 kts | 258° |
| 2026-04-21 21:11 | 63.91498 | -168.64303 | 14023 ft | 218 kts | 257° |
| 2026-04-21 21:11 | 63.91117 | -168.67634 | 14023 ft | 218 kts | 257° |
| 2026-04-21 21:11 | 63.90733 | -168.70967 | 14017 ft | 218 kts | 257° |
| 2026-04-21 21:11 | 63.90349 | -168.74297 | 14021 ft | 218 kts | 257° |
| 2026-04-21 21:12 | 63.89963 | -168.77630 | 14023 ft | 218 kts | 257° |
| 2026-04-21 21:12 | 63.89577 | -168.80962 | 14022 ft | 218 kts | 257° |
| 2026-04-21 21:12 | 63.89190 | -168.84297 | 14022 ft | 218 kts | 257° |
| 2026-04-21 21:12 | 63.88803 | -168.87629 | 14026 ft | 218 kts | 257° |
| 2026-04-21 21:13 | 63.88413 | -168.90964 | 14023 ft | 219 kts | 257° |
| 2026-04-21 21:13 | 63.88025 | -168.94297 | 14022 ft | 219 kts | 257° |
| 2026-04-21 21:13 | 63.87639 | -168.97589 | 14023 ft | 219 kts | 257° |
| 2026-04-21 21:13 | 63.87247 | -169.00923 | 14021 ft | 219 kts | 257° |
| 2026-04-21 21:14 | 63.86855 | -169.04257 | 14027 ft | 219 kts | 257° |
| 2026-04-21 21:14 | 63.86462 | -169.07594 | 14026 ft | 219 kts | 257° |
| 2026-04-21 21:14 | 63.86067 | -169.10929 | 14024 ft | 219 kts | 257° |
| 2026-04-21 21:14 | 63.85673 | -169.14266 | 14027 ft | 219 kts | 257° |
| 2026-04-21 21:15 | 63.85275 | -169.17604 | 14028 ft | 219 kts | 257° |
| 2026-04-21 21:15 | 63.84880 | -169.20942 | 14024 ft | 219 kts | 257° |
| 2026-04-21 21:15 | 63.84482 | -169.24279 | 14025 ft | 219 kts | 257° |
| 2026-04-21 21:15 | 63.84082 | -169.27617 | 14024 ft | 220 kts | 257° |
| 2026-04-21 21:16 | 63.83682 | -169.30956 | 14024 ft | 220 kts | 257° |
| 2026-04-21 21:16 | 63.83283 | -169.34293 | 14022 ft | 220 kts | 257° |
| 2026-04-21 21:16 | 63.82879 | -169.37633 | 14025 ft | 220 kts | 257° |
| 2026-04-21 21:16 | 63.82477 | -169.40972 | 14024 ft | 220 kts | 257° |
| 2026-04-21 21:17 | 63.82074 | -169.44313 | 14024 ft | 220 kts | 257° |
| 2026-04-21 21:17 | 63.81669 | -169.47654 | 14024 ft | 220 kts | 257° |
| 2026-04-21 21:17 | 63.81264 | -169.50997 | 14024 ft | 220 kts | 257° |
| 2026-04-21 21:17 | 63.80857 | -169.54341 | 14024 ft | 220 kts | 257° |
| 2026-04-21 21:18 | 63.80451 | -169.57681 | 14023 ft | 220 kts | 256° |
| 2026-04-21 21:18 | 63.80041 | -169.61024 | 14026 ft | 220 kts | 257° |
| 2026-04-21 21:18 | 63.79632 | -169.64371 | 14040 ft | 220 kts | 256° |
| 2026-04-21 21:18 | 63.79221 | -169.67702 | 14041 ft | 220 kts | 256° |
| 2026-04-21 21:19 | 63.78813 | -169.71040 | 14043 ft | 220 kts | 256° |
| 2026-04-21 21:19 | 63.78403 | -169.74374 | 14044 ft | 220 kts | 256° |
| 2026-04-21 21:19 | 63.77990 | -169.77711 | 14044 ft | 220 kts | 256° |
| 2026-04-21 21:19 | 63.77576 | -169.81049 | 14044 ft | 221 kts | 256° |
| 2026-04-21 21:20 | 63.77161 | -169.84392 | 14044 ft | 221 kts | 256° |
| 2026-04-21 21:20 | 63.76748 | -169.87735 | 14045 ft | 221 kts | 256° |
| 2026-04-21 21:20 | 63.76330 | -169.91076 | 14048 ft | 221 kts | 256° |
| 2026-04-21 21:20 | 63.75914 | -169.94419 | 14049 ft | 221 kts | 256° |
| 2026-04-21 21:21 | 63.75500 | -169.97719 | 14050 ft | 221 kts | 256° |
| 2026-04-21 21:21 | 63.75082 | -170.01062 | 14049 ft | 221 kts | 256° |
| 2026-04-21 21:21 | 63.74661 | -170.04407 | 14046 ft | 221 kts | 256° |
| 2026-04-21 21:21 | 63.74240 | -170.07755 | 14049 ft | 222 kts | 256° |
| 2026-04-21 21:22 | 63.73817 | -170.11101 | 14048 ft | 222 kts | 256° |
| 2026-04-21 21:22 | 63.73394 | -170.14449 | 14053 ft | 222 kts | 256° |
| 2026-04-21 21:22 | 63.72970 | -170.17800 | 14051 ft | 222 kts | 256° |
| 2026-04-21 21:22 | 63.72545 | -170.21150 | 14051 ft | 222 kts | 256° |
| 2026-04-21 21:23 | 63.72117 | -170.24503 | 14012 ft | 224 kts | 256° |
| 2026-04-21 21:23 | 63.71688 | -170.27876 | 14019 ft | 223 kts | 256° |
| 2026-04-21 21:23 | 63.71257 | -170.31255 | 13934 ft | 226 kts | 256° |
| 2026-04-21 21:23 | 63.70819 | -170.34665 | 13679 ft | 227 kts | 256° |
| 2026-04-21 21:24 | 63.70376 | -170.38124 | 13386 ft | 232 kts | 256° |
| 2026-04-21 21:24 | 63.69921 | -170.41655 | 13111 ft | 237 kts | 256° |
| 2026-04-21 21:24 | 63.69485 | -170.45256 | 12832 ft | 238 kts | 260° |
| 2026-04-21 21:24 | 63.69549 | -170.48931 | 12463 ft | 236 kts | 283° |
| 2026-04-21 21:25 | 63.70164 | -170.52380 | 12136 ft | 238 kts | 292° |
| 2026-04-21 21:25 | 63.70826 | -170.55785 | 11823 ft | 235 kts | 291° |
| 2026-04-21 21:25 | 63.71437 | -170.59187 | 11503 ft | 233 kts | 290° |
| 2026-04-21 21:25 | 63.72038 | -170.62575 | 11187 ft | 231 kts | 291° |
| 2026-04-21 21:26 | 63.72636 | -170.65920 | 10830 ft | 230 kts | 291° |
| 2026-04-21 21:26 | 63.73236 | -170.69266 | 10461 ft | 230 kts | 291° |
| 2026-04-21 21:26 | 63.73833 | -170.72609 | 10095 ft | 230 kts | 291° |
| 2026-04-21 21:26 | 63.74430 | -170.75952 | 9702 ft | 230 kts | 291° |
| 2026-04-21 21:27 | 63.75023 | -170.79288 | 9310 ft | 228 kts | 292° |
| 2026-04-21 21:27 | 63.75610 | -170.82597 | 8926 ft | 226 kts | 292° |
| 2026-04-21 21:27 | 63.76192 | -170.85881 | 8549 ft | 223 kts | 292° |
| 2026-04-21 21:27 | 63.76763 | -170.89108 | 8171 ft | 219 kts | 292° |
| 2026-04-21 21:28 | 63.77316 | -170.92251 | 7799 ft | 212 kts | 292° |
| 2026-04-21 21:28 | 63.77866 | -170.95364 | 7426 ft | 215 kts | 292° |
| 2026-04-21 21:28 | 63.78956 | -171.01542 | 6514 ft | 209 kts | 293° |
| 2026-04-21 21:29 | 63.79486 | -171.04573 | 6023 ft | 206 kts | 293° |
| 2026-04-21 21:29 | 63.80009 | -171.07567 | 5555 ft | 201 kts | 294° |
| 2026-04-21 21:29 | 63.80522 | -171.10485 | 5090 ft | 202 kts | 294° |
| 2026-04-21 21:29 | 63.80725 | -171.13626 | 4547 ft | 206 kts | 268° |
| 2026-04-21 21:30 | 63.80213 | -171.16660 | 4005 ft | 210 kts | 238° |
| 2026-04-21 21:30 | 63.79110 | -171.18814 | 3495 ft | 211 kts | 210° |
| 2026-04-21 21:30 | 63.77801 | -171.20242 | 3074 ft | 205 kts | 204° |
| 2026-04-21 21:30 | 63.76566 | -171.21588 | 2882 ft | 193 kts | 206° |
| 2026-04-21 21:31 | 63.75334 | -171.23123 | 2740 ft | 207 kts | 209° |
| 2026-04-21 21:31 | 63.74058 | -171.24743 | 2638 ft | 213 kts | 208° |
| 2026-04-21 21:31 | 63.72753 | -171.26393 | 2537 ft | 217 kts | 208° |
| 2026-04-21 21:31 | 63.71430 | -171.28064 | 2441 ft | 218 kts | 208° |
| 2026-04-21 21:32 | 63.70110 | -171.29736 | 2305 ft | 218 kts | 208° |
| 2026-04-21 21:32 | 63.68809 | -171.31364 | 2192 ft | 205 kts | 207° |
| 2026-04-21 21:32 | 63.67630 | -171.32838 | 2012 ft | 183 kts | 207° |
| 2026-04-21 21:32 | 63.66573 | -171.34178 | 1918 ft | 165 kts | 207° |
| 2026-04-21 21:33 | 63.65558 | -171.35445 | 1942 ft | 171 kts | 207° |
| 2026-04-21 21:33 | 63.64507 | -171.36752 | 1948 ft | 170 kts | 207° |
| 2026-04-21 21:33 | 63.63663 | -171.38376 | 1918 ft | 157 kts | 238° |
| 2026-04-21 21:33 | 63.63262 | -171.40600 | 1935 ft | 152 kts | 251° |
| 2026-04-21 21:34 | 63.62860 | -171.42780 | 1941 ft | 150 kts | 249° |
| 2026-04-21 21:34 | 63.62473 | -171.44956 | 1951 ft | 153 kts | 250° |
| 2026-04-21 21:34 | 63.62076 | -171.47233 | 1959 ft | 158 kts | 250° |
| 2026-04-21 21:34 | 63.61681 | -171.49513 | 1959 ft | 157 kts | 250° |
| 2026-04-21 21:35 | 63.61271 | -171.51801 | 1966 ft | 158 kts | 250° |
| 2026-04-21 21:35 | 63.60884 | -171.53994 | 1939 ft | 143 kts | 249° |
| 2026-04-21 21:35 | 63.60497 | -171.56185 | 1958 ft | 159 kts | 250° |
| 2026-04-21 21:35 | 63.60082 | -171.58595 | 1969 ft | 167 kts | 251° |
| 2026-04-21 21:36 | 63.59997 | -171.60994 | 1912 ft | 144 kts | 289° |
| 2026-04-21 21:36 | 63.60496 | -171.62744 | 1717 ft | 131 kts | 319° |
| 2026-04-21 21:36 | 63.61166 | -171.64108 | 1431 ft | 131 kts | 329° |
| 2026-04-21 21:36 | 63.61962 | -171.65330 | 1480 ft | 143 kts | 332° |
| 2026-04-21 21:37 | 63.62817 | -171.66589 | 1572 ft | 150 kts | 332° |
| 2026-04-21 21:37 | 63.63594 | -171.67780 | 2077 ft | 126 kts | 333° |
| 2026-04-21 21:37 | 63.64268 | -171.68641 | 2202 ft | 95 kts | 341° |
| 2026-04-21 21:37 | 63.64895 | -171.69143 | 2262 ft | 98 kts | 350° |
| 2026-04-21 21:38 | 63.65582 | -171.69514 | 2479 ft | 104 kts | 354° |
| 2026-04-21 21:38 | 63.66284 | -171.69898 | 2937 ft | 102 kts | 350° |
| 2026-04-21 21:38 | 63.67047 | -171.70159 | 3426 ft | 114 kts | 358° |
| 2026-04-21 21:38 | 63.67863 | -171.70233 | 3789 ft | 138 kts | 0° |
| 2026-04-21 21:39 | 63.68690 | -171.70350 | 2267 ft | 230 kts | 359° |
| 2026-04-21 21:39 | 63.70642 | -171.70907 | 2139 ft | 199 kts | 351° |
| 2026-04-21 21:39 | 63.71809 | -171.71515 | 2232 ft | 159 kts | 353° |
| 2026-04-21 21:39 | 63.72922 | -171.72035 | 1356 ft | 163 kts | 351° |
| 2026-04-21 21:40 | 63.74004 | -171.72468 | 900 ft | 146 kts | 356° |
| 2026-04-21 21:40 | 63.74995 | -171.72768 | 362 ft | 145 kts | 356° |
| 2026-04-21 21:40 | 63.75925 | -171.73062 | 70 ft | 128 kts | 356° |
| 2026-04-21 21:40 | 63.76704 | -171.73299 | 38 ft | 95 kts | 353° |
| 2026-04-21 21:41 | 63.77121 | -171.73426 | 37 ft | 40 kts | 353° |
| 2026-04-21 21:41 | 63.77310 | -171.73385 | 38 ft | 20 kts | 19° |
| 2026-04-21 21:41 | 63.77418 | -171.73304 | 36 ft | 16 kts | 22° |
| 2026-04-21 21:41 | 63.77494 | -171.73233 | 34 ft | 9 kts | 24° |
| 2026-04-21 21:42 | 63.77533 | -171.73195 | 38 ft | 12 kts | 28° |
| 2026-04-21 21:42 | 63.77566 | -171.73081 | 37 ft | 7 kts | 76° |
| 2026-04-21 21:42 | 63.77568 | -171.73057 | 36 ft | 0 kts | 76° |
| 2026-04-21 21:44 | 63.77568 | -171.73058 | 36 ft | 0 kts | 76° |
| 2026-04-21 21:46 | 63.77568 | -171.73059 | 36 ft | 0 kts | 76° |